sensor_id;sensor_type;location;lat;lon;timestamp;temperature;humidity
37410;DHT22;23275;48.914;12.566;2022-12-24T00:00:16;9.40;99.90
37410;DHT22;23275;48.914;12.566;2022-12-24T00:02:42;9.30;99.90
37410;DHT22;23275;48.914;12.566;2022-12-24T00:05:08;9.30;99.90
37410;DHT22;23275;48.914;12.566;2022-12-24T00:07:33;9.30;99.90
37410;DHT22;23275;48.914;12.566;2022-12-24T00:09:59;9.30;99.90
37410;DHT22;23275;48.914;12.566;2022-12-24T00:12:25;9.30;99.90
37410;DHT22;23275;48.914;12.566;2022-12-24T00:14:51;9.30;99.90
37410;DHT22;23275;48.914;12.566;2022-12-24T00:17:16;9.30;99.90
37410;DHT22;23275;48.914;12.566;2022-12-24T00:19:42;9.30;99.90
37410;DHT22;23275;48.914;12.566;2022-12-24T00:22:07;9.30;99.90
37410;DHT22;23275;48.914;12.566;2022-12-24T00:24:33;9.30;99.90
37410;DHT22;23275;48.914;12.566;2022-12-24T00:26:59;9.30;99.90
37410;DHT22;23275;48.914;12.566;2022-12-24T00:29:24;9.30;99.90
37410;DHT22;23275;48.914;12.566;2022-12-24T00:31:50;9.30;99.90
37410;DHT22;23275;48.914;12.566;2022-12-24T00:34:16;9.30;99.90
37410;DHT22;23275;48.914;12.566;2022-12-24T00:36:41;9.30;99.90
37410;DHT22;23275;48.914;12.566;2022-12-24T00:39:07;9.30;99.90
37410;DHT22;23275;48.914;12.566;2022-12-24T00:41:32;9.30;99.90
37410;DHT22;23275;48.914;12.566;2022-12-24T00:44:04;9.30;99.90
37410;DHT22;23275;48.914;12.566;2022-12-24T00:46:32;9.30;99.90
37410;DHT22;23275;48.914;12.566;2022-12-24T00:48:57;9.30;99.90
37410;DHT22;23275;48.914;12.566;2022-12-24T00:51:23;9.30;99.90
37410;DHT22;23275;48.914;12.566;2022-12-24T00:53:49;9.20;99.90
37410;DHT22;23275;48.914;12.566;2022-12-24T00:56:15;9.20;99.90
37410;DHT22;23275;48.914;12.566;2022-12-24T00:58:41;9.20;99.90
37410;DHT22;23275;48.914;12.566;2022-12-24T01:01:06;9.20;99.90
37410;DHT22;23275;48.914;12.566;2022-12-24T01:03:32;9.10;99.90
37410;DHT22;23275;48.914;12.566;2022-12-24T01:06:10;9.10;99.90
37410;DHT22;23275;48.914;12.566;2022-12-24T01:08:36;9.10;99.90
37410;DHT22;23275;48.914;12.566;2022-12-24T01:11:03;9.10;99.90
37410;DHT22;23275;48.914;12.566;2022-12-24T01:13:29;9.10;99.90
37410;DHT22;23275;48.914;12.566;2022-12-24T01:15:54;9.00;99.90
37410;DHT22;23275;48.914;12.566;2022-12-24T01:18:20;9.00;99.90
37410;DHT22;23275;48.914;12.566;2022-12-24T01:20:57;8.90;99.90
37410;DHT22;23275;48.914;12.566;2022-12-24T01:23:24;8.90;99.90
37410;DHT22;23275;48.914;12.566;2022-12-24T01:25:50;8.90;99.90
37410;DHT22;23275;48.914;12.566;2022-12-24T01:28:15;8.90;99.90
37410;DHT22;23275;48.914;12.566;2022-12-24T01:30:41;8.90;99.90
37410;DHT22;23275;48.914;12.566;2022-12-24T01:33:07;8.90;99.90
37410;DHT22;23275;48.914;12.566;2022-12-24T01:35:32;8.90;99.90
37410;DHT22;23275;48.914;12.566;2022-12-24T01:37:58;8.80;99.90
37410;DHT22;23275;48.914;12.566;2022-12-24T01:40:25;8.90;99.90
37410;DHT22;23275;48.914;12.566;2022-12-24T01:43:17;8.90;99.90
37410;DHT22;23275;48.914;12.566;2022-12-24T01:45:51;8.80;99.90
37410;DHT22;23275;48.914;12.566;2022-12-24T01:50:52;8.80;99.90
37410;DHT22;23275;48.914;12.566;2022-12-24T01:53:19;8.90;99.90
37410;DHT22;23275;48.914;12.566;2022-12-24T01:55:45;8.90;99.90
37410;DHT22;23275;48.914;12.566;2022-12-24T01:58:13;8.90;99.90
37410;DHT22;23275;48.914;12.566;2022-12-24T02:00:40;8.80;99.90
37410;DHT22;23275;48.914;12.566;2022-12-24T02:03:06;8.90;99.90
37410;DHT22;23275;48.914;12.566;2022-12-24T02:05:48;8.80;99.90
37410;DHT22;23275;48.914;12.566;2022-12-24T02:08:15;8.80;99.90
37410;DHT22;23275;48.914;12.566;2022-12-24T02:10:41;8.80;99.90
37410;DHT22;23275;48.914;12.566;2022-12-24T02:13:07;8.80;99.90
37410;DHT22;23275;48.914;12.566;2022-12-24T02:15:44;8.80;99.90
37410;DHT22;23275;48.914;12.566;2022-12-24T02:18:25;8.80;99.90
37410;DHT22;23275;48.914;12.566;2022-12-24T02:24:22;8.70;99.90
37410;DHT22;23275;48.914;12.566;2022-12-24T02:27:20;8.80;99.90
37410;DHT22;23275;48.914;12.566;2022-12-24T02:30:07;8.80;99.90
37410;DHT22;23275;48.914;12.566;2022-12-24T02:37:56;8.70;99.90
37410;DHT22;23275;48.914;12.566;2022-12-24T02:40:27;8.60;99.90
37410;DHT22;23275;48.914;12.566;2022-12-24T02:43:00;8.60;99.90
37410;DHT22;23275;48.914;12.566;2022-12-24T02:45:31;8.60;99.90
37410;DHT22;23275;48.914;12.566;2022-12-24T02:47:59;8.50;99.90
37410;DHT22;23275;48.914;12.566;2022-12-24T02:50:26;8.60;99.90
37410;DHT22;23275;48.914;12.566;2022-12-24T02:52:52;8.50;99.90
37410;DHT22;23275;48.914;12.566;2022-12-24T03:09:26;8.30;99.90
37410;DHT22;23275;48.914;12.566;2022-12-24T03:12:06;8.40;99.90
37410;DHT22;23275;48.914;12.566;2022-12-24T03:14:34;8.30;99.90
37410;DHT22;23275;48.914;12.566;2022-12-24T03:17:01;8.30;99.90
37410;DHT22;23275;48.914;12.566;2022-12-24T03:19:29;8.30;99.90
37410;DHT22;23275;48.914;12.566;2022-12-24T03:21:57;8.30;99.90
37410;DHT22;23275;48.914;12.566;2022-12-24T03:24:24;8.30;99.90
37410;DHT22;23275;48.914;12.566;2022-12-24T03:26:50;8.30;99.90
37410;DHT22;23275;48.914;12.566;2022-12-24T03:29:16;8.20;99.90
37410;DHT22;23275;48.914;12.566;2022-12-24T03:31:47;8.30;99.90
37410;DHT22;23275;48.914;12.566;2022-12-24T03:34:14;8.30;99.90
37410;DHT22;23275;48.914;12.566;2022-12-24T03:36:40;8.20;99.90
37410;DHT22;23275;48.914;12.566;2022-12-24T03:39:07;8.20;99.90
37410;DHT22;23275;48.914;12.566;2022-12-24T03:41:32;8.20;99.90
37410;DHT22;23275;48.914;12.566;2022-12-24T03:43:58;8.20;99.90
37410;DHT22;23275;48.914;12.566;2022-12-24T03:46:24;8.20;99.90
37410;DHT22;23275;48.914;12.566;2022-12-24T03:48:49;8.20;99.90
37410;DHT22;23275;48.914;12.566;2022-12-24T03:51:17;8.20;99.90
37410;DHT22;23275;48.914;12.566;2022-12-24T03:53:43;8.30;99.90
37410;DHT22;23275;48.914;12.566;2022-12-24T03:56:08;8.30;99.90
37410;DHT22;23275;48.914;12.566;2022-12-24T03:58:34;8.20;99.90
37410;DHT22;23275;48.914;12.566;2022-12-24T04:01:00;8.20;99.90
37410;DHT22;23275;48.914;12.566;2022-12-24T04:03:25;8.10;99.90
37410;DHT22;23275;48.914;12.566;2022-12-24T04:06:02;8.10;99.90
37410;DHT22;23275;48.914;12.566;2022-12-24T04:08:28;8.10;99.90
37410;DHT22;23275;48.914;12.566;2022-12-24T04:10:53;8.00;99.90
37410;DHT22;23275;48.914;12.566;2022-12-24T04:13:19;8.10;99.90
37410;DHT22;23275;48.914;12.566;2022-12-24T04:15:45;8.10;99.90
37410;DHT22;23275;48.914;12.566;2022-12-24T04:18:10;8.10;99.90
37410;DHT22;23275;48.914;12.566;2022-12-24T04:20:36;8.10;99.90
37410;DHT22;23275;48.914;12.566;2022-12-24T04:23:01;8.10;99.90
37410;DHT22;23275;48.914;12.566;2022-12-24T04:25:27;8.10;99.90
37410;DHT22;23275;48.914;12.566;2022-12-24T04:27:52;8.10;99.90
37410;DHT22;23275;48.914;12.566;2022-12-24T04:30:18;8.10;99.90
37410;DHT22;23275;48.914;12.566;2022-12-24T04:32:43;8.10;99.90
37410;DHT22;23275;48.914;12.566;2022-12-24T04:35:09;8.10;99.90
37410;DHT22;23275;48.914;12.566;2022-12-24T04:37:34;8.10;99.90
37410;DHT22;23275;48.914;12.566;2022-12-24T04:40:00;8.10;99.90
37410;DHT22;23275;48.914;12.566;2022-12-24T04:42:26;8.10;99.90
37410;DHT22;23275;48.914;12.566;2022-12-24T04:44:51;8.10;99.90
37410;DHT22;23275;48.914;12.566;2022-12-24T04:47:17;8.10;99.90
37410;DHT22;23275;48.914;12.566;2022-12-24T04:49:43;8.00;99.90
37410;DHT22;23275;48.914;12.566;2022-12-24T04:52:08;8.00;99.90
37410;DHT22;23275;48.914;12.566;2022-12-24T04:54:35;8.00;99.90
37410;DHT22;23275;48.914;12.566;2022-12-24T04:57:01;8.00;99.90
37410;DHT22;23275;48.914;12.566;2022-12-24T04:59:26;7.90;99.90
37410;DHT22;23275;48.914;12.566;2022-12-24T05:01:52;7.90;99.90
37410;DHT22;23275;48.914;12.566;2022-12-24T05:04:17;7.90;99.90
37410;DHT22;23275;48.914;12.566;2022-12-24T05:06:43;7.90;99.90
37410;DHT22;23275;48.914;12.566;2022-12-24T05:09:08;7.80;99.90
37410;DHT22;23275;48.914;12.566;2022-12-24T05:11:34;7.70;99.90
37410;DHT22;23275;48.914;12.566;2022-12-24T05:13:59;7.70;99.90
37410;DHT22;23275;48.914;12.566;2022-12-24T05:16:25;7.70;99.90
37410;DHT22;23275;48.914;12.566;2022-12-24T05:18:51;7.70;99.90
37410;DHT22;23275;48.914;12.566;2022-12-24T05:21:19;7.70;99.90
37410;DHT22;23275;48.914;12.566;2022-12-24T05:23:46;7.70;99.90
37410;DHT22;23275;48.914;12.566;2022-12-24T05:26:34;7.70;99.90
37410;DHT22;23275;48.914;12.566;2022-12-24T05:29:01;7.70;99.90
37410;DHT22;23275;48.914;12.566;2022-12-24T05:31:29;7.70;99.90
37410;DHT22;23275;48.914;12.566;2022-12-24T05:33:54;7.60;99.90
37410;DHT22;23275;48.914;12.566;2022-12-24T05:36:21;7.60;99.90
37410;DHT22;23275;48.914;12.566;2022-12-24T05:38:47;7.60;99.90
37410;DHT22;23275;48.914;12.566;2022-12-24T05:41:13;7.50;99.90
37410;DHT22;23275;48.914;12.566;2022-12-24T05:43:39;7.50;99.90
37410;DHT22;23275;48.914;12.566;2022-12-24T05:46:08;7.50;99.90
37410;DHT22;23275;48.914;12.566;2022-12-24T05:48:34;7.50;99.90
37410;DHT22;23275;48.914;12.566;2022-12-24T05:51:06;7.50;99.90
37410;DHT22;23275;48.914;12.566;2022-12-24T05:53:33;7.50;99.90
37410;DHT22;23275;48.914;12.566;2022-12-24T05:56:10;7.50;99.90
37410;DHT22;23275;48.914;12.566;2022-12-24T05:58:36;7.40;99.90
37410;DHT22;23275;48.914;12.566;2022-12-24T06:01:03;7.40;99.90
37410;DHT22;23275;48.914;12.566;2022-12-24T06:03:30;7.40;99.90
37410;DHT22;23275;48.914;12.566;2022-12-24T06:06:09;7.40;99.90
37410;DHT22;23275;48.914;12.566;2022-12-24T06:08:36;7.40;99.90
37410;DHT22;23275;48.914;12.566;2022-12-24T06:11:04;7.40;99.90
37410;DHT22;23275;48.914;12.566;2022-12-24T06:13:30;7.40;99.90
37410;DHT22;23275;48.914;12.566;2022-12-24T06:15:57;7.40;99.90
37410;DHT22;23275;48.914;12.566;2022-12-24T06:18:23;7.40;99.90
37410;DHT22;23275;48.914;12.566;2022-12-24T06:20:51;7.30;99.90
37410;DHT22;23275;48.914;12.566;2022-12-24T06:23:16;7.30;99.90
37410;DHT22;23275;48.914;12.566;2022-12-24T06:25:42;7.30;99.90
37410;DHT22;23275;48.914;12.566;2022-12-24T06:28:08;7.30;99.90
37410;DHT22;23275;48.914;12.566;2022-12-24T06:30:33;7.30;99.90
37410;DHT22;23275;48.914;12.566;2022-12-24T06:32:59;7.30;99.90
37410;DHT22;23275;48.914;12.566;2022-12-24T06:35:24;7.30;99.90
37410;DHT22;23275;48.914;12.566;2022-12-24T06:37:50;7.30;99.90
37410;DHT22;23275;48.914;12.566;2022-12-24T06:40:15;7.20;99.90
37410;DHT22;23275;48.914;12.566;2022-12-24T06:42:41;7.20;99.90
37410;DHT22;23275;48.914;12.566;2022-12-24T06:45:07;7.20;99.90
37410;DHT22;23275;48.914;12.566;2022-12-24T06:47:32;7.10;99.90
37410;DHT22;23275;48.914;12.566;2022-12-24T06:49:58;7.10;99.90
37410;DHT22;23275;48.914;12.566;2022-12-24T06:52:24;7.10;99.90
37410;DHT22;23275;48.914;12.566;2022-12-24T06:54:49;7.10;99.90
37410;DHT22;23275;48.914;12.566;2022-12-24T06:57:15;7.10;99.90
37410;DHT22;23275;48.914;12.566;2022-12-24T06:59:40;7.00;99.90
37410;DHT22;23275;48.914;12.566;2022-12-24T07:02:07;7.00;99.90
37410;DHT22;23275;48.914;12.566;2022-12-24T07:04:33;6.90;99.90
37410;DHT22;23275;48.914;12.566;2022-12-24T07:06:59;6.80;99.90
37410;DHT22;23275;48.914;12.566;2022-12-24T07:09:24;6.80;99.90
37410;DHT22;23275;48.914;12.566;2022-12-24T07:11:50;6.80;99.90
37410;DHT22;23275;48.914;12.566;2022-12-24T07:14:15;6.80;99.90
37410;DHT22;23275;48.914;12.566;2022-12-24T07:16:41;6.80;99.90
37410;DHT22;23275;48.914;12.566;2022-12-24T07:19:07;6.80;99.90
37410;DHT22;23275;48.914;12.566;2022-12-24T07:21:32;6.90;99.90
37410;DHT22;23275;48.914;12.566;2022-12-24T07:23:58;6.90;99.90
37410;DHT22;23275;48.914;12.566;2022-12-24T07:26:23;6.90;99.90
37410;DHT22;23275;48.914;12.566;2022-12-24T07:28:49;6.90;99.90
37410;DHT22;23275;48.914;12.566;2022-12-24T07:31:14;7.00;99.90
37410;DHT22;23275;48.914;12.566;2022-12-24T07:33:40;7.00;99.90
37410;DHT22;23275;48.914;12.566;2022-12-24T07:36:09;7.00;99.90
37410;DHT22;23275;48.914;12.566;2022-12-24T07:38:36;7.10;99.90
37410;DHT22;23275;48.914;12.566;2022-12-24T07:41:02;7.10;99.90
37410;DHT22;23275;48.914;12.566;2022-12-24T07:43:28;7.10;99.90
37410;DHT22;23275;48.914;12.566;2022-12-24T07:45:56;7.10;99.90
37410;DHT22;23275;48.914;12.566;2022-12-24T07:48:22;7.10;99.90
37410;DHT22;23275;48.914;12.566;2022-12-24T07:50:49;7.20;99.90
37410;DHT22;23275;48.914;12.566;2022-12-24T07:53:15;7.20;99.90
37410;DHT22;23275;48.914;12.566;2022-12-24T07:55:41;7.30;99.90
37410;DHT22;23275;48.914;12.566;2022-12-24T07:58:06;7.40;99.90
37410;DHT22;23275;48.914;12.566;2022-12-24T08:00:32;7.50;99.90
37410;DHT22;23275;48.914;12.566;2022-12-24T08:02:57;7.50;99.90
37410;DHT22;23275;48.914;12.566;2022-12-24T08:05:25;7.70;99.90
37410;DHT22;23275;48.914;12.566;2022-12-24T08:07:51;7.70;99.90
37410;DHT22;23275;48.914;12.566;2022-12-24T08:10:17;7.80;99.90
37410;DHT22;23275;48.914;12.566;2022-12-24T08:12:42;7.80;99.90
37410;DHT22;23275;48.914;12.566;2022-12-24T08:15:08;7.90;99.90
37410;DHT22;23275;48.914;12.566;2022-12-24T08:17:34;7.90;99.90
37410;DHT22;23275;48.914;12.566;2022-12-24T08:19:59;7.90;99.90
37410;DHT22;23275;48.914;12.566;2022-12-24T08:22:25;8.00;99.90
37410;DHT22;23275;48.914;12.566;2022-12-24T08:24:50;8.00;99.90
37410;DHT22;23275;48.914;12.566;2022-12-24T08:27:16;8.00;99.90
37410;DHT22;23275;48.914;12.566;2022-12-24T08:29:41;8.10;99.90
37410;DHT22;23275;48.914;12.566;2022-12-24T08:32:07;8.10;99.90
37410;DHT22;23275;48.914;12.566;2022-12-24T08:34:32;8.20;99.90
37410;DHT22;23275;48.914;12.566;2022-12-24T08:36:58;8.20;99.90
37410;DHT22;23275;48.914;12.566;2022-12-24T08:39:23;8.20;99.90
37410;DHT22;23275;48.914;12.566;2022-12-24T08:41:49;8.20;99.90
37410;DHT22;23275;48.914;12.566;2022-12-24T08:44:15;8.20;99.90
37410;DHT22;23275;48.914;12.566;2022-12-24T08:46:40;8.20;99.90
37410;DHT22;23275;48.914;12.566;2022-12-24T08:49:06;8.20;99.90
37410;DHT22;23275;48.914;12.566;2022-12-24T08:51:31;8.20;99.90
37410;DHT22;23275;48.914;12.566;2022-12-24T08:53:57;8.20;99.90
37410;DHT22;23275;48.914;12.566;2022-12-24T08:56:22;8.30;99.90
37410;DHT22;23275;48.914;12.566;2022-12-24T08:58:48;8.40;99.90
37410;DHT22;23275;48.914;12.566;2022-12-24T09:01:17;8.50;99.90
37410;DHT22;23275;48.914;12.566;2022-12-24T09:03:43;8.60;99.90
37410;DHT22;23275;48.914;12.566;2022-12-24T09:06:09;8.80;99.90
37410;DHT22;23275;48.914;12.566;2022-12-24T09:08:35;8.90;99.90
37410;DHT22;23275;48.914;12.566;2022-12-24T09:11:05;9.00;99.90
37410;DHT22;23275;48.914;12.566;2022-12-24T09:13:31;9.00;99.90
37410;DHT22;23275;48.914;12.566;2022-12-24T09:15:57;8.90;99.90
37410;DHT22;23275;48.914;12.566;2022-12-24T09:18:24;8.90;99.90
37410;DHT22;23275;48.914;12.566;2022-12-24T09:20:49;8.90;99.90
37410;DHT22;23275;48.914;12.566;2022-12-24T09:23:15;8.90;99.90
37410;DHT22;23275;48.914;12.566;2022-12-24T09:25:41;8.90;99.90
37410;DHT22;23275;48.914;12.566;2022-12-24T09:28:08;8.90;99.90
37410;DHT22;23275;48.914;12.566;2022-12-24T09:30:37;8.90;99.90
37410;DHT22;23275;48.914;12.566;2022-12-24T09:33:03;8.80;99.90
37410;DHT22;23275;48.914;12.566;2022-12-24T09:35:29;8.80;99.90
37410;DHT22;23275;48.914;12.566;2022-12-24T09:37:55;8.80;99.90
37410;DHT22;23275;48.914;12.566;2022-12-24T09:40:37;8.80;99.90
37410;DHT22;23275;48.914;12.566;2022-12-24T09:43:07;8.80;99.90
37410;DHT22;23275;48.914;12.566;2022-12-24T09:45:40;8.80;99.90
37410;DHT22;23275;48.914;12.566;2022-12-24T09:48:15;8.80;99.90
37410;DHT22;23275;48.914;12.566;2022-12-24T09:50:50;8.90;99.90
37410;DHT22;23275;48.914;12.566;2022-12-24T09:53:57;8.90;99.90
37410;DHT22;23275;48.914;12.566;2022-12-24T09:56:32;9.00;99.90
37410;DHT22;23275;48.914;12.566;2022-12-24T09:59:03;9.00;99.90
37410;DHT22;23275;48.914;12.566;2022-12-24T10:01:31;9.10;99.90
37410;DHT22;23275;48.914;12.566;2022-12-24T10:04:02;9.20;99.90
37410;DHT22;23275;48.914;12.566;2022-12-24T10:09:29;9.30;99.90
37410;DHT22;23275;48.914;12.566;2022-12-24T10:22:58;10.10;99.90
37410;DHT22;23275;48.914;12.566;2022-12-24T10:25:31;10.20;99.90
37410;DHT22;23275;48.914;12.566;2022-12-24T10:28:01;10.30;99.90
37410;DHT22;23275;48.914;12.566;2022-12-24T10:30:27;10.20;99.90
37410;DHT22;23275;48.914;12.566;2022-12-24T10:32:54;10.20;99.90
37410;DHT22;23275;48.914;12.566;2022-12-24T10:35:26;10.10;99.90
37410;DHT22;23275;48.914;12.566;2022-12-24T10:37:53;10.10;99.90
37410;DHT22;23275;48.914;12.566;2022-12-24T10:40:36;10.20;99.90
37410;DHT22;23275;48.914;12.566;2022-12-24T10:43:24;10.20;99.90
37410;DHT22;23275;48.914;12.566;2022-12-24T10:45:56;10.30;99.90
37410;DHT22;23275;48.914;12.566;2022-12-24T10:53:48;10.90;99.90
37410;DHT22;23275;48.914;12.566;2022-12-24T10:56:16;11.10;99.90
37410;DHT22;23275;48.914;12.566;2022-12-24T10:59:01;11.40;99.90
37410;DHT22;23275;48.914;12.566;2022-12-24T11:01:46;11.70;99.90
37410;DHT22;23275;48.914;12.566;2022-12-24T11:04:19;12.20;99.90
37410;DHT22;23275;48.914;12.566;2022-12-24T11:09:30;12.60;99.90
37410;DHT22;23275;48.914;12.566;2022-12-24T11:11:57;12.90;99.90
37410;DHT22;23275;48.914;12.566;2022-12-24T11:14:24;13.30;99.90
37410;DHT22;23275;48.914;12.566;2022-12-24T11:16:56;13.60;99.90
37410;DHT22;23275;48.914;12.566;2022-12-24T11:19:33;13.60;99.90
37410;DHT22;23275;48.914;12.566;2022-12-24T11:22:05;13.90;99.90
37410;DHT22;23275;48.914;12.566;2022-12-24T11:24:33;14.10;99.90
37410;DHT22;23275;48.914;12.566;2022-12-24T11:27:32;14.10;99.90
37410;DHT22;23275;48.914;12.566;2022-12-24T11:30:20;14.10;99.90
37410;DHT22;23275;48.914;12.566;2022-12-24T11:35:26;13.90;99.90
37410;DHT22;23275;48.914;12.566;2022-12-24T11:40:40;13.60;99.90
37410;DHT22;23275;48.914;12.566;2022-12-24T11:43:15;13.60;99.90
37410;DHT22;23275;48.914;12.566;2022-12-24T11:45:51;13.50;99.90
37410;DHT22;23275;48.914;12.566;2022-12-24T11:48:33;13.40;99.90
37410;DHT22;23275;48.914;12.566;2022-12-24T11:51:04;13.20;99.90
37410;DHT22;23275;48.914;12.566;2022-12-24T11:53:47;13.10;99.90
37410;DHT22;23275;48.914;12.566;2022-12-24T11:56:37;13.00;99.90
37410;DHT22;23275;48.914;12.566;2022-12-24T11:59:43;13.00;99.90
37410;DHT22;23275;48.914;12.566;2022-12-24T12:02:25;13.00;99.90
37410;DHT22;23275;48.914;12.566;2022-12-24T12:04:54;12.80;99.90
37410;DHT22;23275;48.914;12.566;2022-12-24T12:07:25;12.90;99.90
37410;DHT22;23275;48.914;12.566;2022-12-24T12:09:59;13.00;99.90
37410;DHT22;23275;48.914;12.566;2022-12-24T12:12:40;13.00;99.90
37410;DHT22;23275;48.914;12.566;2022-12-24T12:15:21;12.80;99.90
37410;DHT22;23275;48.914;12.566;2022-12-24T12:18:14;12.80;99.90
37410;DHT22;23275;48.914;12.566;2022-12-24T12:20:42;12.70;99.90
37410;DHT22;23275;48.914;12.566;2022-12-24T12:23:22;12.50;99.90
37410;DHT22;23275;48.914;12.566;2022-12-24T12:26:27;12.30;99.90
37410;DHT22;23275;48.914;12.566;2022-12-24T12:29:00;12.00;99.90
37410;DHT22;23275;48.914;12.566;2022-12-24T12:31:43;11.80;99.90
37410;DHT22;23275;48.914;12.566;2022-12-24T12:36:55;11.80;99.90
37410;DHT22;23275;48.914;12.566;2022-12-24T12:39:23;11.80;99.90
37410;DHT22;23275;48.914;12.566;2022-12-24T12:42:10;11.80;99.90
37410;DHT22;23275;48.914;12.566;2022-12-24T12:55:33;12.00;99.90
37410;DHT22;23275;48.914;12.566;2022-12-24T12:58:03;12.00;99.90
37410;DHT22;23275;48.914;12.566;2022-12-24T13:00:36;11.90;99.90
37410;DHT22;23275;48.914;12.566;2022-12-24T13:06:11;12.00;99.90
37410;DHT22;23275;48.914;12.566;2022-12-24T13:22:35;11.30;99.90
37410;DHT22;23275;48.914;12.566;2022-12-24T13:25:01;11.30;99.90
37410;DHT22;23275;48.914;12.566;2022-12-24T13:27:27;11.30;99.90
37410;DHT22;23275;48.914;12.566;2022-12-24T13:32:52;11.20;99.90
37410;DHT22;23275;48.914;12.566;2022-12-24T13:37:44;11.20;99.90
37410;DHT22;23275;48.914;12.566;2022-12-24T13:58:50;10.80;99.90
37410;DHT22;23275;48.914;12.566;2022-12-24T14:01:31;10.80;99.90
37410;DHT22;23275;48.914;12.566;2022-12-24T14:03:59;10.80;99.90
37410;DHT22;23275;48.914;12.566;2022-12-24T14:06:30;10.70;99.90
37410;DHT22;23275;48.914;12.566;2022-12-24T14:09:09;10.60;99.90
37410;DHT22;23275;48.914;12.566;2022-12-24T14:14:30;10.40;99.90
37410;DHT22;23275;48.914;12.566;2022-12-24T14:16:59;10.30;99.90
37410;DHT22;23275;48.914;12.566;2022-12-24T14:19:42;10.30;99.90
37410;DHT22;23275;48.914;12.566;2022-12-24T14:24:48;10.20;99.90
37410;DHT22;23275;48.914;12.566;2022-12-24T14:27:19;10.20;99.90
37410;DHT22;23275;48.914;12.566;2022-12-24T14:32:31;10.10;99.90
37410;DHT22;23275;48.914;12.566;2022-12-24T14:35:14;10.10;99.90
37410;DHT22;23275;48.914;12.566;2022-12-24T14:37:56;10.10;99.90
37410;DHT22;23275;48.914;12.566;2022-12-24T14:40:32;10.10;99.90
37410;DHT22;23275;48.914;12.566;2022-12-24T14:43:29;10.10;99.90
37410;DHT22;23275;48.914;12.566;2022-12-24T14:46:25;10.00;99.90
37410;DHT22;23275;48.914;12.566;2022-12-24T14:48:56;9.90;99.90
37410;DHT22;23275;48.914;12.566;2022-12-24T14:54:30;9.80;99.90
37410;DHT22;23275;48.914;12.566;2022-12-24T15:05:23;9.40;99.90
37410;DHT22;23275;48.914;12.566;2022-12-24T15:07:56;9.20;99.90
37410;DHT22;23275;48.914;12.566;2022-12-24T15:10:33;9.20;99.90
37410;DHT22;23275;48.914;12.566;2022-12-24T15:13:20;9.00;99.90
37410;DHT22;23275;48.914;12.566;2022-12-24T15:15:48;9.00;99.90
37410;DHT22;23275;48.914;12.566;2022-12-24T15:18:23;8.90;99.90
37410;DHT22;23275;48.914;12.566;2022-12-24T15:20:52;8.70;99.90
37410;DHT22;23275;48.914;12.566;2022-12-24T15:23:27;8.60;99.90
37410;DHT22;23275;48.914;12.566;2022-12-24T15:28:37;8.50;99.90
37410;DHT22;23275;48.914;12.566;2022-12-24T15:31:11;8.50;99.90
37410;DHT22;23275;48.914;12.566;2022-12-24T15:33:38;8.50;99.90
37410;DHT22;23275;48.914;12.566;2022-12-24T15:36:05;8.40;99.90
37410;DHT22;23275;48.914;12.566;2022-12-24T15:38:35;8.40;99.90
37410;DHT22;23275;48.914;12.566;2022-12-24T15:41:05;8.40;99.90
37410;DHT22;23275;48.914;12.566;2022-12-24T15:43:31;8.40;99.90
37410;DHT22;23275;48.914;12.566;2022-12-24T15:45:57;8.40;99.90
37410;DHT22;23275;48.914;12.566;2022-12-24T15:48:25;8.40;99.90
37410;DHT22;23275;48.914;12.566;2022-12-24T15:50:55;8.40;99.90
37410;DHT22;23275;48.914;12.566;2022-12-24T15:53:26;8.40;99.90
37410;DHT22;23275;48.914;12.566;2022-12-24T15:56:03;8.40;99.90
37410;DHT22;23275;48.914;12.566;2022-12-24T15:58:31;8.40;99.90
37410;DHT22;23275;48.914;12.566;2022-12-24T16:03:30;8.40;99.90
37410;DHT22;23275;48.914;12.566;2022-12-24T16:06:01;8.40;99.90
37410;DHT22;23275;48.914;12.566;2022-12-24T16:08:36;8.40;99.90
37410;DHT22;23275;48.914;12.566;2022-12-24T16:13:33;8.40;99.90
37410;DHT22;23275;48.914;12.566;2022-12-24T16:16:05;8.40;99.90
37410;DHT22;23275;48.914;12.566;2022-12-24T16:21:04;8.30;99.90
37410;DHT22;23275;48.914;12.566;2022-12-24T16:23:38;8.30;99.90
37410;DHT22;23275;48.914;12.566;2022-12-24T16:26:04;8.20;99.90
37410;DHT22;23275;48.914;12.566;2022-12-24T16:28:31;8.20;99.90
37410;DHT22;23275;48.914;12.566;2022-12-24T16:30:56;8.10;99.90
37410;DHT22;23275;48.914;12.566;2022-12-24T16:33:22;8.10;99.90
37410;DHT22;23275;48.914;12.566;2022-12-24T16:35:48;8.00;99.90
37410;DHT22;23275;48.914;12.566;2022-12-24T16:38:15;8.00;99.90
37410;DHT22;23275;48.914;12.566;2022-12-24T16:40:41;8.00;99.90
37410;DHT22;23275;48.914;12.566;2022-12-24T16:43:08;8.00;99.90
37410;DHT22;23275;48.914;12.566;2022-12-24T16:45:52;7.90;99.90
37410;DHT22;23275;48.914;12.566;2022-12-24T16:48:24;7.80;99.90
37410;DHT22;23275;48.914;12.566;2022-12-24T16:50:51;7.80;99.90
37410;DHT22;23275;48.914;12.566;2022-12-24T16:53:18;7.70;99.90
37410;DHT22;23275;48.914;12.566;2022-12-24T16:55:45;7.70;99.90
37410;DHT22;23275;48.914;12.566;2022-12-24T16:58:12;7.70;99.90
37410;DHT22;23275;48.914;12.566;2022-12-24T17:00:39;7.80;99.90
37410;DHT22;23275;48.914;12.566;2022-12-24T17:03:05;7.80;99.90
37410;DHT22;23275;48.914;12.566;2022-12-24T17:05:30;7.80;99.90
37410;DHT22;23275;48.914;12.566;2022-12-24T17:07:59;7.80;99.90
37410;DHT22;23275;48.914;12.566;2022-12-24T17:10:25;7.70;99.90
37410;DHT22;23275;48.914;12.566;2022-12-24T17:12:51;7.70;99.90
37410;DHT22;23275;48.914;12.566;2022-12-24T17:15:17;7.70;99.90
37410;DHT22;23275;48.914;12.566;2022-12-24T17:17:42;7.70;99.90
37410;DHT22;23275;48.914;12.566;2022-12-24T17:20:08;7.60;99.90
37410;DHT22;23275;48.914;12.566;2022-12-24T17:22:35;7.50;99.90
37410;DHT22;23275;48.914;12.566;2022-12-24T17:25:00;7.50;99.90
37410;DHT22;23275;48.914;12.566;2022-12-24T17:27:26;7.50;99.90
37410;DHT22;23275;48.914;12.566;2022-12-24T17:29:51;7.40;99.90
37410;DHT22;23275;48.914;12.566;2022-12-24T17:32:17;7.40;99.90
37410;DHT22;23275;48.914;12.566;2022-12-24T17:34:42;7.40;99.90
37410;DHT22;23275;48.914;12.566;2022-12-24T17:37:08;7.40;99.90
37410;DHT22;23275;48.914;12.566;2022-12-24T17:39:34;7.40;99.90
37410;DHT22;23275;48.914;12.566;2022-12-24T17:41:59;7.50;99.90
37410;DHT22;23275;48.914;12.566;2022-12-24T17:44:25;7.50;99.90
37410;DHT22;23275;48.914;12.566;2022-12-24T17:46:50;7.50;99.90
37410;DHT22;23275;48.914;12.566;2022-12-24T17:49:16;7.40;99.90
37410;DHT22;23275;48.914;12.566;2022-12-24T17:51:41;7.40;99.90
37410;DHT22;23275;48.914;12.566;2022-12-24T17:54:07;7.40;99.90
37410;DHT22;23275;48.914;12.566;2022-12-24T17:56:35;7.40;99.90